Time;durP1;ratioP1;P1;durP2;ratioP2;P2;SDS_P1;SDS_P2;PMS_P1;PMS_P2;Temp;Humidity;BMP_temperature;BMP_pressure;BME280_temperature;BME280_humidity;BME280_pressure;Samples;Min_cycle;Max_cycle;Signal;HPM_P1;HPM_P2
2023/12/04 00:00:25;;;;;;;51.58;20.55;;;;;;;;;;5030647;28;20076;-71
2023/12/04 00:02:51;;;;;;;56.00;21.60;;;;;;;;;;5029757;28;20065;-71
2023/12/04 00:05:17;;;;;;;57.55;20.17;;;;;;;;;;5027861;28;20045;-70
2023/12/04 00:07:44;;;;;;;58.80;20.58;;;;;;;;;;5028804;28;20051;-69
2023/12/04 00:10:10;;;;;;;53.28;21.00;;;;;;;;;;5029249;28;20132;-69
2023/12/04 00:12:37;;;;;;;50.47;20.05;;;;;;;;;;5028558;28;20140;-71
2023/12/04 00:15:03;;;;;;;54.13;20.58;;;;;;;;;;5028920;28;20056;-73
2023/12/04 00:17:30;;;;;;;57.88;20.08;;;;;;;;;;5028546;28;20046;-70
2023/12/04 00:19:57;;;;;;;50.60;19.63;;;;;;;;;;5028858;28;20046;-70
2023/12/04 00:22:24;;;;;;;59.38;19.17;;;;;;;;;;5028508;28;20088;-71
2023/12/04 00:24:50;;;;;;;58.95;19.05;;;;;;;;;;5031653;28;20068;-70
2023/12/04 00:27:17;;;;;;;52.05;20.20;;;;;;;;;;5030359;28;20048;-70
2023/12/04 00:29:44;;;;;;;51.63;20.42;;;;;;;;;;5028869;28;20107;-70
2023/12/04 00:32:10;;;;;;;45.88;20.10;;;;;;;;;;5028110;28;20041;-70
2023/12/04 00:34:36;;;;;;;58.55;21.33;;;;;;;;;;5027981;28;20441;-69
2023/12/04 00:37:03;;;;;;;51.33;18.60;;;;;;;;;;5028218;28;20053;-70
2023/12/04 00:39:30;;;;;;;48.45;17.77;;;;;;;;;;5013213;28;20498;-71
2023/12/04 00:41:56;;;;;;;47.40;17.98;;;;;;;;;;5028341;28;20077;-70
2023/12/04 00:44:23;;;;;;;45.00;19.73;;;;;;;;;;5028329;28;20042;-70
2023/12/04 00:46:49;;;;;;;51.63;18.55;;;;;;;;;;5028366;28;20045;-71
2023/12/04 00:49:15;;;;;;;51.78;20.80;;;;;;;;;;5029831;28;20053;-70
2023/12/04 00:51:42;;;;;;;55.28;19.45;;;;;;;;;;5029372;28;20091;-71
2023/12/04 00:54:08;;;;;;;57.90;21.63;;;;;;;;;;5027816;28;20055;-70
2023/12/04 00:56:37;;;;;;;53.97;22.33;;;;;;;;;;5020555;28;20037;-70
2023/12/04 00:59:03;;;;;;;59.95;20.05;;;;;;;;;;5027798;28;20148;-70
2023/12/04 01:01:30;;;;;;;50.15;19.90;;;;;;;;;;5028264;28;20081;-72
2023/12/04 01:03:56;;;;;;;56.38;21.80;;;;;;;;;;5027862;28;20446;-70
2023/12/04 01:06:23;;;;;;;62.65;21.45;;;;;;;;;;5026509;28;20045;-70
2023/12/04 01:08:51;;;;;;;57.70;22.88;;;;;;;;;;5028310;28;20046;-71
2023/12/04 01:11:19;;;;;;;50.38;19.45;;;;;;;;;;5027343;28;20049;-70
2023/12/04 01:13:45;;;;;;;65.35;22.67;;;;;;;;;;5033063;28;20048;-71
2023/12/04 01:16:12;;;;;;;55.15;21.95;;;;;;;;;;5033321;28;20053;-70
2023/12/04 01:18:38;;;;;;;59.28;21.85;;;;;;;;;;5032404;28;20187;-71
2023/12/04 01:21:05;;;;;;;56.05;19.75;;;;;;;;;;5031992;28;20045;-70
2023/12/04 01:23:31;;;;;;;51.03;19.83;;;;;;;;;;5032044;28;20049;-70
2023/12/04 01:25:58;;;;;;;55.22;19.77;;;;;;;;;;5031702;28;20069;-71
2023/12/04 01:28:25;;;;;;;51.03;19.02;;;;;;;;;;5031937;28;20045;-69
2023/12/04 01:30:51;;;;;;;57.78;23.23;;;;;;;;;;5031904;28;20175;-70
2023/12/04 01:33:18;;;;;;;52.05;21.73;;;;;;;;;;5032234;28;20050;-69
2023/12/04 01:35:44;;;;;;;56.85;18.38;;;;;;;;;;5032438;28;20060;-70
2023/12/04 01:38:11;;;;;;;59.35;21.60;;;;;;;;;;5034232;28;20437;-71
2023/12/04 01:40:37;;;;;;;53.63;20.30;;;;;;;;;;5032020;28;20093;-71
2023/12/04 01:43:03;;;;;;;55.83;18.83;;;;;;;;;;5031869;28;20053;-70
2023/12/04 01:45:30;;;;;;;59.05;18.90;;;;;;;;;;5030458;28;20104;-70
2023/12/04 01:47:57;;;;;;;55.47;19.85;;;;;;;;;;5031229;28;20060;-69
2023/12/04 01:50:24;;;;;;;51.28;19.48;;;;;;;;;;5030463;28;20470;-71
2023/12/04 01:52:52;;;;;;;54.42;20.60;;;;;;;;;;5031488;28;20163;-70
2023/12/04 01:55:19;;;;;;;58.70;22.60;;;;;;;;;;5028402;28;20050;-70
2023/12/04 01:57:45;;;;;;;66.30;23.92;;;;;;;;;;5031129;28;20539;-69
2023/12/04 02:00:13;;;;;;;68.30;24.40;;;;;;;;;;5031286;28;20501;-70
2023/12/04 02:02:39;;;;;;;62.58;23.83;;;;;;;;;;5031078;28;20128;-69
2023/12/04 02:05:07;;;;;;;67.97;23.83;;;;;;;;;;5031433;28;20118;-71
2023/12/04 02:07:35;;;;;;;71.63;25.42;;;;;;;;;;5029872;28;20084;-70
2023/12/04 02:10:02;;;;;;;75.82;24.63;;;;;;;;;;5031273;28;20065;-71
2023/12/04 02:12:29;;;;;;;70.78;24.27;;;;;;;;;;5030495;28;20054;-70
2023/12/04 02:14:56;;;;;;;51.13;22.45;;;;;;;;;;5031026;28;20557;-69
2023/12/04 02:17:23;;;;;;;65.90;24.38;;;;;;;;;;5030627;28;20049;-70
2023/12/04 02:19:49;;;;;;;75.28;24.85;;;;;;;;;;5030952;28;20050;-70
2023/12/04 02:22:18;;;;;;;54.50;22.90;;;;;;;;;;5030527;28;20057;-71
2023/12/04 02:24:45;;;;;;;65.75;23.23;;;;;;;;;;5030448;28;20050;-70
2023/12/04 02:27:14;;;;;;;62.85;22.85;;;;;;;;;;5030661;28;20075;-70
2023/12/04 02:29:43;;;;;;;69.75;23.15;;;;;;;;;;5030734;28;20490;-70
2023/12/04 02:32:12;;;;;;;56.97;22.67;;;;;;;;;;5029412;28;20049;-70
2023/12/04 02:34:40;;;;;;;53.75;21.90;;;;;;;;;;5030767;28;20034;-70
2023/12/04 02:37:08;;;;;;;61.10;22.90;;;;;;;;;;5029673;28;20045;-70
2023/12/04 02:39:36;;;;;;;70.50;22.92;;;;;;;;;;5030771;28;20049;-70
2023/12/04 02:42:04;;;;;;;66.72;22.17;;;;;;;;;;5030420;28;20406;-70
2023/12/04 02:44:30;;;;;;;59.20;22.45;;;;;;;;;;5030701;28;20490;-70
2023/12/04 02:46:56;;;;;;;61.22;22.50;;;;;;;;;;5029743;28;20132;-70
2023/12/04 02:49:23;;;;;;;58.03;23.10;;;;;;;;;;5030494;28;20092;-70
2023/12/04 02:51:49;;;;;;;59.03;22.48;;;;;;;;;;5029811;28;20191;-70
2023/12/04 02:54:16;;;;;;;64.25;23.38;;;;;;;;;;5030560;28;20084;-71
2023/12/04 02:56:42;;;;;;;56.78;21.25;;;;;;;;;;5029779;28;20054;-71
2023/12/04 02:59:09;;;;;;;65.82;23.60;;;;;;;;;;5030548;28;20050;-69
2023/12/04 03:01:35;;;;;;;61.47;22.98;;;;;;;;;;5029751;28;20107;-71
2023/12/04 03:04:02;;;;;;;60.88;22.67;;;;;;;;;;5029965;28;20049;-71
2023/12/04 03:06:28;;;;;;;60.22;20.77;;;;;;;;;;5029717;28;20051;-70
2023/12/04 03:08:55;;;;;;;55.08;21.83;;;;;;;;;;5029213;28;20045;-70
2023/12/04 03:11:21;;;;;;;69.55;23.25;;;;;;;;;;5029405;28;20049;-70
2023/12/04 03:13:48;;;;;;;67.82;24.80;;;;;;;;;;5031162;28;20045;-70
2023/12/04 03:16:15;;;;;;;62.30;23.55;;;;;;;;;;5031888;28;20080;-70
2023/12/04 03:18:41;;;;;;;57.47;21.20;;;;;;;;;;5030517;28;20100;-70
2023/12/04 03:21:08;;;;;;;67.45;22.80;;;;;;;;;;5029708;28;20455;-70
2023/12/04 03:23:35;;;;;;;66.68;22.45;;;;;;;;;;5028241;28;20045;-70
2023/12/04 03:26:01;;;;;;;63.38;21.77;;;;;;;;;;5029803;28;20058;-70
2023/12/04 03:28:28;;;;;;;62.03;23.75;;;;;;;;;;5030046;28;20053;-71
2023/12/04 03:30:54;;;;;;;58.30;22.63;;;;;;;;;;5029690;28;20050;-71
2023/12/04 03:33:21;;;;;;;58.65;19.30;;;;;;;;;;5029795;28;20558;-70
2023/12/04 03:35:47;;;;;;;61.80;22.00;;;;;;;;;;5029554;28;20043;-70
2023/12/04 03:38:14;;;;;;;53.58;21.42;;;;;;;;;;5028422;28;20069;-71
2023/12/04 03:40:40;;;;;;;58.60;22.17;;;;;;;;;;5032921;28;20145;-72
2023/12/04 03:43:07;;;;;;;56.10;22.50;;;;;;;;;;5030368;28;20048;-70
2023/12/04 03:45:33;;;;;;;68.53;22.63;;;;;;;;;;5029962;28;20052;-70
2023/12/04 03:47:59;;;;;;;52.40;19.92;;;;;;;;;;5028252;28;20045;-71
2023/12/04 03:50:26;;;;;;;69.47;24.92;;;;;;;;;;5029471;28;20105;-70
2023/12/04 03:52:52;;;;;;;61.90;21.80;;;;;;;;;;5028833;28;20061;-70
2023/12/04 03:55:19;;;;;;;69.07;23.05;;;;;;;;;;5026545;28;20058;-70
2023/12/04 03:57:46;;;;;;;59.60;21.52;;;;;;;;;;5028786;28;20064;-71
2023/12/04 04:00:13;;;;;;;51.67;20.00;;;;;;;;;;5029544;28;20129;-72
2023/12/04 04:02:39;;;;;;;56.97;22.63;;;;;;;;;;5029847;28;20128;-70
2023/12/04 04:05:06;;;;;;;58.53;22.15;;;;;;;;;;5032172;28;20056;-70
2023/12/04 04:07:33;;;;;;;65.70;22.92;;;;;;;;;;5029194;28;20054;-71
2023/12/04 04:10:00;;;;;;;56.28;22.23;;;;;;;;;;5028064;28;20038;-70
2023/12/04 04:12:27;;;;;;;52.83;22.77;;;;;;;;;;5028998;28;20057;-70
2023/12/04 04:14:53;;;;;;;63.75;23.70;;;;;;;;;;5029031;28;20328;-69
2023/12/04 04:17:20;;;;;;;62.25;21.95;;;;;;;;;;5029407;28;20045;-69
2023/12/04 04:19:46;;;;;;;71.57;23.58;;;;;;;;;;5029346;28;20092;-70
2023/12/04 04:22:12;;;;;;;70.50;22.67;;;;;;;;;;5028460;28;20103;-69
2023/12/04 04:24:39;;;;;;;62.80;23.42;;;;;;;;;;5029182;28;20096;-71
2023/12/04 04:27:05;;;;;;;57.22;23.02;;;;;;;;;;5030569;28;20055;-71
2023/12/04 04:29:32;;;;;;;67.28;22.50;;;;;;;;;;5030498;28;20077;-70
2023/12/04 04:31:58;;;;;;;68.53;24.17;;;;;;;;;;5028445;28;20053;-70
2023/12/04 04:34:25;;;;;;;59.15;25.15;;;;;;;;;;5029454;28;20061;-72
2023/12/04 04:36:51;;;;;;;59.05;23.98;;;;;;;;;;5028307;28;20045;-72
2023/12/04 04:39:18;;;;;;;64.28;24.20;;;;;;;;;;5027817;28;20144;-70
2023/12/04 04:41:44;;;;;;;61.38;22.95;;;;;;;;;;5028329;28;20053;-70
2023/12/04 04:44:11;;;;;;;65.18;24.77;;;;;;;;;;5020051;28;20056;-70
2023/12/04 04:46:37;;;;;;;62.33;22.17;;;;;;;;;;5027965;28;20073;-72
2023/12/04 04:49:06;;;;;;;59.78;21.80;;;;;;;;;;5027943;28;20050;-70
2023/12/04 04:51:33;;;;;;;54.97;22.13;;;;;;;;;;5028495;28;20080;-69
2023/12/04 04:54:00;;;;;;;65.50;23.95;;;;;;;;;;5028772;28;20049;-70
2023/12/04 04:56:27;;;;;;;58.88;21.90;;;;;;;;;;5025707;28;20045;-70
2023/12/04 04:58:53;;;;;;;50.50;20.63;;;;;;;;;;5029305;28;20469;-70
2023/12/04 05:01:19;;;;;;;68.32;26.35;;;;;;;;;;5028560;28;20049;-71
2023/12/04 05:03:46;;;;;;;61.08;23.77;;;;;;;;;;5027983;28;20045;-71
2023/12/04 05:06:13;;;;;;;60.00;23.67;;;;;;;;;;5027670;28;20045;-70
2023/12/04 05:08:39;;;;;;;55.00;23.05;;;;;;;;;;5028292;28;20050;-70
2023/12/04 05:11:06;;;;;;;54.03;21.70;;;;;;;;;;5027017;28;20049;-71
2023/12/04 05:13:32;;;;;;;54.15;20.52;;;;;;;;;;5028182;28;20481;-70
2023/12/04 05:15:59;;;;;;;53.03;21.70;;;;;;;;;;5026380;28;20540;-70
2023/12/04 05:18:25;;;;;;;54.72;23.30;;;;;;;;;;5028000;28;20049;-70
2023/12/04 05:20:52;;;;;;;53.10;21.25;;;;;;;;;;5027631;28;20053;-71
2023/12/04 05:23:18;;;;;;;54.92;22.15;;;;;;;;;;5028422;28;20073;-70
2023/12/04 05:25:45;;;;;;;59.47;23.75;;;;;;;;;;5028356;28;20655;-70
2023/12/04 05:28:16;;;;;;;56.67;22.92;;;;;;;;;;5027881;28;20056;-70
2023/12/04 05:30:43;;;;;;;59.60;22.88;;;;;;;;;;5028018;28;20478;-70
2023/12/04 05:33:09;;;;;;;60.47;23.00;;;;;;;;;;5027313;28;20046;-69
2023/12/04 05:35:37;;;;;;;56.92;23.00;;;;;;;;;;5028236;28;20054;-69
2023/12/04 05:38:03;;;;;;;59.33;22.60;;;;;;;;;;5027207;28;20046;-71
2023/12/04 05:40:32;;;;;;;55.53;20.15;;;;;;;;;;5026876;28;20118;-70
2023/12/04 05:42:59;;;;;;;52.03;21.50;;;;;;;;;;5027414;28;20049;-71
2023/12/04 05:45:25;;;;;;;55.85;21.40;;;;;;;;;;5027646;28;20053;-70
2023/12/04 05:47:52;;;;;;;60.50;22.35;;;;;;;;;;5027806;28;20578;-70
2023/12/04 05:50:19;;;;;;;52.35;20.27;;;;;;;;;;5027701;28;20049;-71
2023/12/04 05:52:45;;;;;;;54.75;20.17;;;;;;;;;;5027735;28;20081;-70
2023/12/04 05:55:12;;;;;;;67.35;24.17;;;;;;;;;;5024600;28;20488;-70
2023/12/04 05:57:39;;;;;;;54.50;24.20;;;;;;;;;;5022356;28;20099;-70
2023/12/04 06:00:12;;;;;;;61.97;21.88;;;;;;;;;;5028308;28;20053;-70
2023/12/04 06:02:39;;;;;;;55.05;22.80;;;;;;;;;;5031107;28;20073;-71
2023/12/04 06:05:06;;;;;;;55.78;23.70;;;;;;;;;;5031916;28;20107;-70
2023/12/04 06:07:32;;;;;;;56.80;21.67;;;;;;;;;;5032576;28;20054;-70
2023/12/04 06:09:58;;;;;;;54.15;22.90;;;;;;;;;;5030449;28;20640;-71
2023/12/04 06:12:25;;;;;;;60.78;21.58;;;;;;;;;;5030834;28;20509;-70
2023/12/04 06:14:51;;;;;;;55.90;21.65;;;;;;;;;;5031854;28;20430;-71
2023/12/04 06:17:18;;;;;;;56.63;20.63;;;;;;;;;;5030627;28;20541;-70
2023/12/04 06:19:46;;;;;;;55.25;22.02;;;;;;;;;;5031335;28;20072;-70
2023/12/04 06:22:13;;;;;;;53.25;20.40;;;;;;;;;;5030584;28;20045;-70
2023/12/04 06:24:40;;;;;;;53.90;21.20;;;;;;;;;;5030736;28;20107;-70
2023/12/04 06:27:09;;;;;;;55.78;21.55;;;;;;;;;;5030693;28;20049;-69
2023/12/04 06:29:35;;;;;;;66.18;22.50;;;;;;;;;;5032109;28;20518;-69
2023/12/04 06:32:02;;;;;;;53.88;22.08;;;;;;;;;;5032983;28;20052;-71
2023/12/04 06:34:28;;;;;;;53.45;21.08;;;;;;;;;;5029728;28;20052;-70
2023/12/04 06:36:55;;;;;;;51.55;19.60;;;;;;;;;;5030667;28;20115;-69
2023/12/04 06:39:22;;;;;;;52.53;20.00;;;;;;;;;;5030918;28;20049;-69
2023/12/04 06:41:48;;;;;;;56.33;23.02;;;;;;;;;;5029640;28;20045;-69
2023/12/04 06:44:15;;;;;;;51.78;21.85;;;;;;;;;;5030650;28;20493;-70
2023/12/04 06:46:43;;;;;;;47.45;19.85;;;;;;;;;;5030684;28;20049;-70
2023/12/04 06:49:11;;;;;;;51.03;21.83;;;;;;;;;;5030369;28;20049;-70
2023/12/04 06:51:38;;;;;;;58.30;22.08;;;;;;;;;;5030552;28;20069;-70
2023/12/04 06:54:04;;;;;;;54.38;20.20;;;;;;;;;;5032306;28;20053;-71
2023/12/04 06:56:31;;;;;;;58.65;22.08;;;;;;;;;;5030269;28;20497;-71
2023/12/04 06:58:57;;;;;;;57.72;21.20;;;;;;;;;;5029996;28;20137;-70
2023/12/04 07:01:24;;;;;;;43.20;19.70;;;;;;;;;;5030119;28;20405;-70
2023/12/04 07:03:50;;;;;;;45.50;19.42;;;;;;;;;;5029810;28;20080;-70
2023/12/04 07:06:17;;;;;;;48.83;21.67;;;;;;;;;;5030145;28;20413;-70
2023/12/04 07:08:44;;;;;;;43.10;20.15;;;;;;;;;;5029648;28;20041;-72
2023/12/04 07:11:14;;;;;;;51.85;20.92;;;;;;;;;;5028580;28;20060;-70
2023/12/04 07:13:41;;;;;;;51.65;20.55;;;;;;;;;;5030251;28;20095;-70
2023/12/04 07:16:07;;;;;;;53.45;22.58;;;;;;;;;;5029682;28;20042;-71
2023/12/04 07:18:34;;;;;;;60.30;22.38;;;;;;;;;;5033131;28;20107;-73
2023/12/04 07:21:01;;;;;;;55.42;22.05;;;;;;;;;;5035672;28;20045;-71
2023/12/04 07:23:27;;;;;;;51.63;21.88;;;;;;;;;;5030652;28;20049;-70
2023/12/04 07:25:54;;;;;;;49.10;19.42;;;;;;;;;;5030233;28;20103;-69
2023/12/04 07:28:20;;;;;;;47.83;20.63;;;;;;;;;;5015183;28;20064;-70
2023/12/04 07:30:47;;;;;;;46.85;19.80;;;;;;;;;;5029510;28;20045;-70
2023/12/04 07:33:13;;;;;;;58.83;24.35;;;;;;;;;;5029733;28;20046;-72
2023/12/04 07:35:40;;;;;;;54.40;22.23;;;;;;;;;;5029408;28;20042;-69
2023/12/04 07:38:06;;;;;;;59.88;22.23;;;;;;;;;;5029221;28;20068;-70
2023/12/04 07:40:33;;;;;;;44.28;20.45;;;;;;;;;;5029379;28;20510;-70
2023/12/04 07:42:59;;;;;;;48.05;19.90;;;;;;;;;;5032206;28;20131;-72
2023/12/04 07:45:27;;;;;;;48.08;21.15;;;;;;;;;;5033954;28;20054;-71
2023/12/04 07:47:53;;;;;;;47.83;20.67;;;;;;;;;;5029418;28;20076;-70
2023/12/04 07:50:20;;;;;;;51.00;21.10;;;;;;;;;;5029761;28;20076;-71
2023/12/04 07:52:46;;;;;;;56.03;22.67;;;;;;;;;;5028875;28;20045;-70
2023/12/04 07:55:13;;;;;;;52.78;22.08;;;;;;;;;;5026810;28;20463;-71
2023/12/04 07:57:39;;;;;;;50.50;23.23;;;;;;;;;;5028532;28;20738;-70
2023/12/04 08:00:06;;;;;;;54.80;22.15;;;;;;;;;;5029123;28;20138;-71
2023/12/04 08:02:32;;;;;;;53.92;21.65;;;;;;;;;;5028583;28;20045;-70
2023/12/04 08:04:59;;;;;;;53.05;21.75;;;;;;;;;;5028928;28;20065;-71
2023/12/04 08:07:25;;;;;;;55.20;23.60;;;;;;;;;;5029146;28;20060;-70
2023/12/04 08:09:53;;;;;;;56.05;21.77;;;;;;;;;;5029136;28;20045;-70
2023/12/04 08:12:20;;;;;;;56.75;22.65;;;;;;;;;;5028025;28;20814;-70
2023/12/04 08:14:46;;;;;;;53.92;22.80;;;;;;;;;;5029394;28;20049;-71
2023/12/04 08:17:13;;;;;;;53.03;20.55;;;;;;;;;;5028607;28;20347;-71
2023/12/04 08:19:39;;;;;;;51.80;20.83;;;;;;;;;;5028834;28;20100;-70
2023/12/04 08:22:06;;;;;;;59.78;24.33;;;;;;;;;;5028196;28;20397;-70
2023/12/04 08:24:32;;;;;;;47.40;21.70;;;;;;;;;;5028234;28;20107;-70
2023/12/04 08:26:59;;;;;;;52.95;22.08;;;;;;;;;;5028486;28;20057;-72
2023/12/04 08:29:25;;;;;;;52.38;20.70;;;;;;;;;;5028645;28;20056;-70
2023/12/04 08:31:51;;;;;;;50.90;22.30;;;;;;;;;;5027414;28;20144;-70
2023/12/04 08:34:18;;;;;;;58.08;22.48;;;;;;;;;;5028575;28;20150;-70
2023/12/04 08:36:45;;;;;;;52.17;22.13;;;;;;;;;;5028060;28;20068;-71
2023/12/04 08:39:12;;;;;;;50.58;23.25;;;;;;;;;;5028544;28;20122;-70
2023/12/04 08:41:39;;;;;;;50.88;22.40;;;;;;;;;;5028239;28;20072;-72
2023/12/04 08:44:16;;;;;;;57.25;22.02;;;;;;;;;;5027623;28;20050;-70
2023/12/04 08:46:43;;;;;;;48.67;20.77;;;;;;;;;;5027965;28;20045;-72
2023/12/04 08:49:10;;;;;;;50.95;21.30;;;;;;;;;;5029416;28;20057;-70
2023/12/04 08:51:37;;;;;;;49.60;21.98;;;;;;;;;;5028105;28;20089;-70
2023/12/04 08:54:03;;;;;;;47.92;20.67;;;;;;;;;;5027588;28;20045;-71
2023/12/04 08:56:44;;;;;;;44.08;20.05;;;;;;;;;;5025237;28;20042;-71
2023/12/04 08:59:12;;;;;;;48.88;20.98;;;;;;;;;;5029149;28;20049;-70
2023/12/04 09:01:39;;;;;;;48.17;21.05;;;;;;;;;;5028023;28;20452;-70
2023/12/04 09:04:09;;;;;;;47.72;21.23;;;;;;;;;;5028386;28;20814;-70
2023/12/04 09:06:36;;;;;;;50.95;21.13;;;;;;;;;;5028331;28;20042;-72
2023/12/04 09:09:05;;;;;;;47.75;21.60;;;;;;;;;;5028696;28;20057;-71
2023/12/04 09:11:40;;;;;;;49.00;19.52;;;;;;;;;;5028312;28;20049;-70
2023/12/04 09:14:07;;;;;;;45.78;19.23;;;;;;;;;;5027590;28;20461;-71
2023/12/04 09:16:33;;;;;;;54.50;21.73;;;;;;;;;;5029198;28;20394;-70
2023/12/04 09:19:00;;;;;;;48.50;20.00;;;;;;;;;;5028187;28;20640;-71
2023/12/04 09:21:26;;;;;;;52.80;22.65;;;;;;;;;;5027769;28;20061;-71
2023/12/04 09:23:53;;;;;;;46.72;19.92;;;;;;;;;;5027740;28;20049;-71
2023/12/04 09:26:20;;;;;;;49.55;22.88;;;;;;;;;;5027952;28;20064;-71
2023/12/04 09:28:46;;;;;;;49.30;20.02;;;;;;;;;;5027713;28;20056;-70
2023/12/04 09:31:14;;;;;;;42.92;20.13;;;;;;;;;;5027240;28;20731;-72
2023/12/04 09:33:40;;;;;;;44.00;20.17;;;;;;;;;;5027793;28;20048;-71
2023/12/04 09:36:07;;;;;;;43.78;21.52;;;;;;;;;;5030615;28;20132;-71
2023/12/04 09:38:34;;;;;;;45.85;20.05;;;;;;;;;;5031865;28;20466;-70
2023/12/04 09:41:04;;;;;;;43.90;19.98;;;;;;;;;;5034065;28;20057;-71
2023/12/04 09:43:34;;;;;;;39.95;19.55;;;;;;;;;;5036062;28;20065;-71
2023/12/04 09:46:01;;;;;;;43.80;20.02;;;;;;;;;;5034114;28;20056;-72
2023/12/04 09:48:28;;;;;;;44.17;20.42;;;;;;;;;;5032479;28;20075;-68
2023/12/04 09:50:56;;;;;;;42.22;19.60;;;;;;;;;;5031954;28;20383;-69
2023/12/04 09:53:26;;;;;;;45.78;20.35;;;;;;;;;;5032146;28;20041;-71
2023/12/04 09:55:53;;;;;;;41.03;18.63;;;;;;;;;;5031077;28;20045;-70
2023/12/04 09:58:20;;;;;;;41.85;17.80;;;;;;;;;;5031327;28;20548;-70
2023/12/04 10:00:47;;;;;;;44.47;20.10;;;;;;;;;;5019801;28;20050;-73
2023/12/04 10:03:14;;;;;;;39.47;17.75;;;;;;;;;;5032558;28;20045;-70
2023/12/04 10:05:43;;;;;;;42.40;18.30;;;;;;;;;;5035243;28;20124;-76
2023/12/04 10:08:09;;;;;;;38.92;17.70;;;;;;;;;;5035929;28;20053;-70
2023/12/04 10:10:36;;;;;;;35.13;17.67;;;;;;;;;;5031245;28;20103;-71
2023/12/04 10:13:03;;;;;;;42.70;18.75;;;;;;;;;;5031309;28;20538;-71
2023/12/04 10:15:29;;;;;;;41.65;18.38;;;;;;;;;;5027099;28;20414;-70
2023/12/04 10:17:56;;;;;;;38.40;16.98;;;;;;;;;;5028172;28;20045;-71
2023/12/04 10:20:24;;;;;;;37.47;17.42;;;;;;;;;;5031480;28;20054;-70
2023/12/04 10:22:59;;;;;;;36.88;16.63;;;;;;;;;;5031092;28;20095;-72
2023/12/04 10:25:28;;;;;;;38.67;16.05;;;;;;;;;;5031091;28;20042;-73
2023/12/04 10:28:06;;;;;;;42.85;18.52;;;;;;;;;;5031657;28;20053;-70
2023/12/04 10:30:33;;;;;;;39.17;18.75;;;;;;;;;;5021564;28;20479;-71
2023/12/04 10:33:07;;;;;;;39.35;18.45;;;;;;;;;;5033942;28;20490;-70
2023/12/04 10:35:38;;;;;;;43.47;18.65;;;;;;;;;;5031486;28;20140;-71
2023/12/04 10:38:06;;;;;;;35.13;16.48;;;;;;;;;;5030648;28;20749;-70
2023/12/04 10:40:33;;;;;;;37.35;17.73;;;;;;;;;;5030829;28;20049;-70
2023/12/04 10:43:09;;;;;;;36.47;16.75;;;;;;;;;;5030457;28;20052;-71
2023/12/04 10:45:40;;;;;;;40.75;17.67;;;;;;;;;;5029346;28;20060;-72
2023/12/04 10:48:07;;;;;;;40.95;18.27;;;;;;;;;;5030494;28;20045;-71
2023/12/04 10:50:34;;;;;;;36.88;18.50;;;;;;;;;;5030444;28;20048;-70
2023/12/04 10:53:03;;;;;;;39.92;17.67;;;;;;;;;;5030484;28;20513;-70
2023/12/04 10:55:30;;;;;;;40.20;17.67;;;;;;;;;;5028654;28;20045;-71
2023/12/04 10:57:57;;;;;;;34.72;15.65;;;;;;;;;;5029043;28;20073;-70
2023/12/04 11:00:24;;;;;;;37.88;15.93;;;;;;;;;;5030330;28;20112;-70
2023/12/04 11:02:53;;;;;;;34.63;15.82;;;;;;;;;;5030265;28;20045;-71
2023/12/04 11:05:21;;;;;;;35.30;16.33;;;;;;;;;;5030102;28;20418;-71
2023/12/04 11:07:52;;;;;;;34.00;16.17;;;;;;;;;;5030329;28;20054;-73
2023/12/04 11:10:56;;;;;;;31.80;15.95;;;;;;;;;;5029972;28;20049;-72
2023/12/04 11:13:28;;;;;;;32.83;16.60;;;;;;;;;;5029930;28;20132;-69
2023/12/04 11:15:59;;;;;;;28.92;14.15;;;;;;;;;;5029657;28;20557;-71
2023/12/04 11:18:27;;;;;;;30.30;14.35;;;;;;;;;;5030240;28;20068;-71
2023/12/04 11:20:56;;;;;;;36.25;15.25;;;;;;;;;;5030249;28;20451;-69
2023/12/04 11:23:23;;;;;;;28.38;14.15;;;;;;;;;;5030451;28;20053;-72
2023/12/04 11:25:50;;;;;;;28.05;13.90;;;;;;;;;;5030707;28;20069;-70
2023/12/04 11:28:17;;;;;;;27.15;14.32;;;;;;;;;;5029798;28;20053;-73
2023/12/04 11:30:43;;;;;;;33.08;15.10;;;;;;;;;;5029331;28;20103;-73
2023/12/04 11:33:11;;;;;;;31.02;13.27;;;;;;;;;;5029935;28;20045;-70
2023/12/04 11:35:41;;;;;;;30.88;14.30;;;;;;;;;;5024324;28;20049;-70
2023/12/04 11:38:09;;;;;;;30.20;14.95;;;;;;;;;;5029398;28;20530;-70
2023/12/04 11:40:36;;;;;;;27.42;13.77;;;;;;;;;;5029608;28;20453;-73
2023/12/04 11:43:26;;;;;;;30.08;14.20;;;;;;;;;;5018224;28;20056;-70
2023/12/04 11:45:53;;;;;;;33.95;14.60;;;;;;;;;;5022639;28;20052;-71
2023/12/04 11:48:25;;;;;;;30.13;15.68;;;;;;;;;;5029307;28;20069;-70
2023/12/04 11:50:52;;;;;;;34.33;15.98;;;;;;;;;;5029055;28;20471;-71
2023/12/04 11:53:18;;;;;;;29.10;13.63;;;;;;;;;;5029556;28;20148;-70
2023/12/04 11:55:45;;;;;;;29.38;14.90;;;;;;;;;;5022940;28;20045;-70
2023/12/04 11:58:12;;;;;;;28.95;14.32;;;;;;;;;;5028201;28;20041;-71
2023/12/04 12:00:41;;;;;;;31.65;14.35;;;;;;;;;;5029612;28;20608;-71
2023/12/04 12:03:09;;;;;;;28.05;14.18;;;;;;;;;;5029094;28;20089;-74
2023/12/04 12:05:48;;;;;;;28.40;14.13;;;;;;;;;;5028319;28;20045;-72
2023/12/04 12:08:17;;;;;;;26.80;12.88;;;;;;;;;;5029162;28;20508;-72
2023/12/04 12:10:44;;;;;;;27.60;13.52;;;;;;;;;;5029608;28;20060;-71
2023/12/04 12:13:11;;;;;;;34.50;14.85;;;;;;;;;;5028352;28;20046;-71
2023/12/04 12:15:38;;;;;;;28.58;12.38;;;;;;;;;;5029244;28;20765;-70
2023/12/04 12:18:05;;;;;;;26.55;12.75;;;;;;;;;;5027435;28;20133;-71
2023/12/04 12:20:32;;;;;;;27.13;13.57;;;;;;;;;;5028619;28;20041;-73
2023/12/04 12:22:59;;;;;;;28.65;13.95;;;;;;;;;;5028621;28;20052;-71
2023/12/04 12:25:26;;;;;;;25.73;12.88;;;;;;;;;;5028584;28;20049;-70
2023/12/04 12:27:52;;;;;;;29.27;13.13;;;;;;;;;;5028403;28;20046;-72
2023/12/04 12:30:19;;;;;;;22.55;12.73;;;;;;;;;;5028683;28;20502;-70
2023/12/04 12:32:46;;;;;;;24.83;12.77;;;;;;;;;;5028520;28;20120;-73
2023/12/04 12:35:12;;;;;;;25.70;12.05;;;;;;;;;;5028359;28;20112;-74
2023/12/04 12:37:39;;;;;;;25.83;13.38;;;;;;;;;;5026793;28;20049;-70
2023/12/04 12:40:09;;;;;;;25.65;11.90;;;;;;;;;;5028451;28;20052;-70
2023/12/04 12:42:37;;;;;;;20.90;10.88;;;;;;;;;;5028563;28;20508;-71
2023/12/04 12:45:04;;;;;;;24.88;11.80;;;;;;;;;;5032707;28;20133;-70
2023/12/04 12:47:30;;;;;;;23.25;12.68;;;;;;;;;;5023054;28;20049;-69
2023/12/04 12:49:57;;;;;;;25.48;11.80;;;;;;;;;;5028379;28;20743;-71
2023/12/04 12:52:25;;;;;;;21.95;11.35;;;;;;;;;;5028004;28;20053;-69
2023/12/04 12:54:52;;;;;;;23.65;11.93;;;;;;;;;;5026237;28;20592;-71
2023/12/04 12:57:18;;;;;;;22.00;11.70;;;;;;;;;;5029831;28;20103;-70
2023/12/04 12:59:45;;;;;;;27.00;12.48;;;;;;;;;;5029079;28;20046;-72
2023/12/04 13:02:11;;;;;;;25.10;12.23;;;;;;;;;;5027708;28;20099;-74
2023/12/04 13:04:40;;;;;;;23.50;11.13;;;;;;;;;;5028877;28;20482;-72
2023/12/04 13:07:07;;;;;;;24.30;12.55;;;;;;;;;;5027749;28;20068;-70
2023/12/04 13:09:35;;;;;;;20.05;11.25;;;;;;;;;;5028206;28;20107;-72
2023/12/04 13:12:02;;;;;;;23.15;11.50;;;;;;;;;;5027589;28;20489;-71
2023/12/04 13:14:29;;;;;;;21.65;12.05;;;;;;;;;;5028241;28;20049;-70
2023/12/04 13:16:56;;;;;;;25.02;11.32;;;;;;;;;;5027875;28;20041;-73
2023/12/04 13:19:23;;;;;;;28.10;13.13;;;;;;;;;;5029728;28;20049;-72
2023/12/04 13:21:51;;;;;;;25.83;11.02;;;;;;;;;;5031817;28;20050;-74
2023/12/04 13:24:17;;;;;;;22.20;11.40;;;;;;;;;;5028373;28;20743;-71
2023/12/04 13:26:44;;;;;;;22.55;10.85;;;;;;;;;;5028388;28;20505;-69
2023/12/04 13:29:11;;;;;;;24.60;11.48;;;;;;;;;;5028230;28;20049;-70
2023/12/04 13:31:38;;;;;;;20.48;10.52;;;;;;;;;;5028169;28;20045;-71
2023/12/04 13:34:06;;;;;;;23.08;10.68;;;;;;;;;;5027497;28;20050;-71
2023/12/04 13:36:36;;;;;;;19.65;10.90;;;;;;;;;;5028000;28;20064;-71
2023/12/04 13:39:16;;;;;;;19.77;10.73;;;;;;;;;;5014849;28;20050;-71
2023/12/04 13:44:30;;;;;;;23.70;10.38;;;;;;;;;;5032492;28;20107;-74
2023/12/04 13:46:57;;;;;;;21.83;11.30;;;;;;;;;;5029348;28;20053;-72
2023/12/04 13:49:23;;;;;;;22.60;10.70;;;;;;;;;;5027554;28;20483;-71
2023/12/04 13:51:50;;;;;;;21.52;12.07;;;;;;;;;;5027855;28;20371;-70
2023/12/04 13:54:35;;;;;;;23.17;12.38;;;;;;;;;;5027680;28;20042;-71
2023/12/04 13:57:03;;;;;;;23.30;11.85;;;;;;;;;;5023051;28;20046;-69
2023/12/04 13:59:32;;;;;;;27.15;13.00;;;;;;;;;;5027664;28;20106;-71
2023/12/04 14:02:00;;;;;;;21.20;10.95;;;;;;;;;;5027467;28;20069;-71
2023/12/04 14:04:27;;;;;;;23.55;11.35;;;;;;;;;;5027506;28;20053;-71
2023/12/04 14:06:55;;;;;;;21.65;12.85;;;;;;;;;;5027866;28;20053;-69
2023/12/04 14:09:25;;;;;;;23.73;12.50;;;;;;;;;;5029322;28;20046;-77
2023/12/04 14:11:51;;;;;;;22.38;12.13;;;;;;;;;;5028585;28;20054;-71
2023/12/04 14:14:18;;;;;;;23.17;11.55;;;;;;;;;;5027980;28;20068;-70
2023/12/04 14:16:46;;;;;;;22.83;12.05;;;;;;;;;;5027451;28;20528;-70
2023/12/04 14:19:14;;;;;;;27.17;13.63;;;;;;;;;;5027733;28;20437;-71